Main page
METAR-TAF:

METAR-TAF

Airports :

Warsaw, Poland

Warsaw Chopin Airport

latitude: 52-10N, longitude: 020-58E, elevation: 106 m

Current weather observation

The report was made 30 minutes ago, at 07:30 UTC
Wind 9 kt from the North/Northwest
Temperature 6°C
Humidity 81%
Pressure 1025 hPa
Visibility 10 km or more
Few clouds at a height of 1000 ft
Broken clouds at a height of 3600 ft

METAR: EPWA 240730Z 33009KT 9999 FEW010 BKN036 06/03 Q1025 NOSIG

Time: 09:00 (08:00 UTC)

Forecast

The report was made 2 hours and 30 minutes ago, at 05:30 UTC
Forecast valid from 24 at 06 UTC to 25 at 06 UTC
Wind 10 kt from the North
Visibility 10 km or more
no clouds below 1500 m and no cumulonimbus
Probability 40%
from 24 at 06 UTC to 24 at 08 UTC
Broken clouds at a height of 1000 ft
Becoming
from 24 at 20 UTC to 24 at 23 UTC
Wind 5 kt from the West
Probability 40%
from 25 at 02 UTC to 25 at 06 UTC
Visibility: 4000 m
mist

TAF: EPWA 240530Z 2406/2506 35010KT CAVOK PROB40 2406/2408 BKN010 BECMG 2420/2423 27005KT PROB40 2502/2506 4000 BR

Weather observations and forecasts of more than 4000 airports (METAR and TAF reports).

The available stations are represented by yellow and red dots on the map.

Hover mouse over dot to see the name of the station.

Then click to see weather observations and forecasts.

To change the map : click on the green buttons with a black cross to zoom in, on the green button with a dash to zoom out, or on the green arrows for adjacent maps.


METAR-TAF: